Time;durP1;ratioP1;P1;durP2;ratioP2;P2;SDS_P1;SDS_P2;PMS_P1;PMS_P2;Temp;Humidity;BMP_temperature;BMP_pressure;BME280_temperature;BME280_humidity;BME280_pressure;Samples;Min_cycle;Max_cycle;Signal;HPM_P1;HPM_P2
2022/09/27 00:00:04;;;;;;;2.78;0.63;;;12.20;99.90;;;;;;5029272;28;25072;-64
2022/09/27 00:02:29;;;;;;;3.67;1.15;;;12.30;99.90;;;;;;5030159;28;25065;-63
2022/09/27 00:04:55;;;;;;;6.25;0.95;;;12.40;99.90;;;;;;5032706;28;25076;-63
2022/09/27 00:07:20;;;;;;;3.85;0.68;;;12.40;99.90;;;;;;5029665;28;25056;-65
2022/09/27 00:09:46;;;;;;;1.77;0.50;;;12.40;99.90;;;;;;5030108;28;25114;-64
2022/09/27 00:12:11;;;;;;;1.65;0.80;;;12.60;99.90;;;;;;5025339;28;25057;-65
2022/09/27 00:14:37;;;;;;;5.30;0.88;;;12.50;99.90;;;;;;5023708;28;25050;-65
2022/09/27 00:17:02;;;;;;;2.00;0.77;;;12.50;99.90;;;;;;5029556;28;25091;-64
2022/09/27 00:19:28;;;;;;;4.85;0.70;;;12.40;99.90;;;;;;5027922;28;25132;-64
2022/09/27 00:21:55;;;;;;;5.47;0.60;;;12.40;99.90;;;;;;5023956;28;25062;-64
2022/09/27 00:24:21;;;;;;;3.15;1.50;;;12.50;99.90;;;;;;5030346;28;25147;-64
2022/09/27 00:26:48;;;;;;;3.70;0.70;;;12.60;99.90;;;;;;5030289;28;25109;-65
2022/09/27 00:29:15;;;;;;;4.93;0.95;;;12.60;99.90;;;;;;5031466;28;25071;-65
2022/09/27 00:31:41;;;;;;;5.53;0.70;;;12.60;99.90;;;;;;5030677;28;25130;-66
2022/09/27 00:34:15;;;;;;;3.53;0.60;;;12.60;99.90;;;;;;5026101;28;25071;-64
2022/09/27 00:36:40;;;;;;;3.10;0.77;;;12.80;99.90;;;;;;5028134;28;25061;-65
2022/09/27 00:39:06;;;;;;;2.35;0.68;;;12.80;99.90;;;;;;5027225;28;25076;-64
2022/09/27 00:41:34;;;;;;;4.78;0.80;;;12.80;99.90;;;;;;5019856;28;25145;-64
2022/09/27 00:44:25;;;;;;;4.10;1.13;;;12.70;99.90;;;;;;5026102;28;25146;-65
2022/09/27 00:47:01;;;;;;;6.28;0.68;;;12.70;99.90;;;;;;5012980;28;25112;-65
2022/09/27 00:49:44;;;;;;;6.20;0.88;;;12.70;99.90;;;;;;5036073;28;25096;-65
2022/09/27 00:52:15;;;;;;;2.72;0.70;;;12.70;99.90;;;;;;5020244;28;25071;-64
2022/09/27 00:54:44;;;;;;;4.38;0.68;;;12.70;99.90;;;;;;5024990;28;25069;-64
2022/09/27 00:57:10;;;;;;;3.78;0.70;;;12.70;99.90;;;;;;5020282;28;25072;-64
2022/09/27 00:59:43;;;;;;;1.98;0.57;;;12.60;99.90;;;;;;5021595;28;25054;-65
2022/09/27 01:02:08;;;;;;;3.55;1.27;;;12.60;99.90;;;;;;5021893;28;25076;-64
2022/09/27 01:04:37;;;;;;;7.50;0.95;;;12.60;99.90;;;;;;5025934;28;25136;-64
2022/09/27 01:07:03;;;;;;;5.65;1.08;;;12.60;99.90;;;;;;5019363;28;25075;-64
2022/09/27 01:09:29;;;;;;;9.00;1.70;;;12.50;99.90;;;;;;5028619;28;25071;-63
2022/09/27 01:12:12;;;;;;;4.45;0.90;;;12.40;99.90;;;;;;5026295;28;25115;-63
2022/09/27 01:15:20;;;;;;;6.18;1.17;;;12.30;99.90;;;;;;5025398;28;25076;-64
2022/09/27 01:17:59;;;;;;;9.85;2.38;;;12.40;99.90;;;;;;5021993;28;25100;-64
2022/09/27 01:20:36;;;;;;;4.10;1.23;;;12.50;99.90;;;;;;5022667;28;25058;-65
2022/09/27 01:23:22;;;;;;;8.32;0.95;;;12.50;99.90;;;;;;5025322;28;25073;-64
2022/09/27 01:26:21;;;;;;;7.90;1.15;;;12.60;99.90;;;;;;5023085;22;25107;-61
2022/09/27 01:29:23;;;;;;;8.18;1.10;;;12.70;99.90;;;;;;5006877;28;25068;-62
2022/09/27 01:32:04;;;;;;;9.35;1.17;;;12.80;99.90;;;;;;5007083;28;25050;-66
2022/09/27 01:34:42;;;;;;;7.25;1.38;;;12.80;99.90;;;;;;5009396;28;25052;-64
2022/09/27 01:37:33;;;;;;;6.70;1.20;;;12.80;99.90;;;;;;5002903;28;25089;-63
2022/09/27 01:40:36;;;;;;;7.43;1.70;;;12.80;99.90;;;;;;5002130;28;25100;-62
2022/09/27 01:43:12;;;;;;;8.60;1.27;;;12.60;99.90;;;;;;5010098;28;25056;-62
2022/09/27 01:45:55;;;;;;;6.65;1.08;;;12.60;99.90;;;;;;5000568;28;25063;-60
2022/09/27 01:48:22;;;;;;;20.27;1.55;;;12.50;99.90;;;;;;5006049;28;25062;-62
2022/09/27 01:51:05;;;;;;;7.95;1.38;;;12.60;99.90;;;;;;5005558;28;25141;-62
2022/09/27 01:53:40;;;;;;;9.20;1.30;;;12.60;99.90;;;;;;5018531;28;25097;-62
2022/09/27 01:56:13;;;;;;;3.55;1.50;;;12.60;99.90;;;;;;5003107;28;25065;-62
2022/09/27 01:58:56;;;;;;;6.85;1.65;;;12.50;99.90;;;;;;5012882;28;25098;-62
2022/09/27 02:01:23;;;;;;;12.13;1.42;;;12.30;99.90;;;;;;5006129;28;25152;-62
2022/09/27 02:03:51;;;;;;;15.60;1.55;;;12.30;99.90;;;;;;5003311;28;25054;-62
2022/09/27 02:06:25;;;;;;;4.88;1.45;;;12.40;99.90;;;;;;5006011;28;25143;-62
2022/09/27 02:08:59;;;;;;;7.63;1.05;;;12.20;99.90;;;;;;5005750;28;25476;-63
2022/09/27 02:11:26;;;;;;;6.30;1.08;;;12.20;99.90;;;;;;5004925;28;25134;-64
2022/09/27 02:13:54;;;;;;;8.15;1.20;;;12.20;99.90;;;;;;5003814;28;25075;-63
2022/09/27 02:16:35;;;;;;;6.28;1.00;;;12.10;99.90;;;;;;5004843;28;25117;-63
2022/09/27 02:19:00;;;;;;;14.30;3.25;;;12.10;99.90;;;;;;5009560;28;24952;-62
2022/09/27 02:21:55;;;;;;;5.60;1.35;;;12.20;99.90;;;;;;5018417;28;25187;-63
2022/09/27 02:24:28;;;;;;;3.65;0.75;;;12.20;99.90;;;;;;4977305;28;25062;-63
2022/09/27 02:27:14;;;;;;;10.40;2.85;;;12.10;99.90;;;;;;5004923;28;25123;-64
2022/09/27 02:29:49;;;;;;;10.32;2.03;;;12.20;99.90;;;;;;5001413;28;25150;-64
2022/09/27 02:32:15;;;;;;;7.20;0.85;;;12.30;99.90;;;;;;5006148;28;25111;-64
2022/09/27 02:34:42;;;;;;;8.05;2.42;;;12.30;99.90;;;;;;4993765;28;25132;-63
2022/09/27 02:37:08;;;;;;;8.40;1.02;;;12.40;99.90;;;;;;5006811;28;25065;-63
2022/09/27 02:39:34;;;;;;;6.75;1.05;;;12.40;99.90;;;;;;5005911;28;25058;-63
2022/09/27 02:42:00;;;;;;;2.67;0.80;;;12.30;99.90;;;;;;5006758;28;25054;-64
2022/09/27 02:44:27;;;;;;;3.95;1.05;;;12.10;99.90;;;;;;5003299;28;25062;-63
2022/09/27 02:47:25;;;;;;;5.10;0.77;;;12.00;99.90;;;;;;5003102;28;25093;-63
2022/09/27 02:50:06;;;;;;;0.95;0.60;;;11.70;99.90;;;;;;5004502;28;25089;-63
2022/09/27 02:52:50;;;;;;;6.38;0.70;;;11.70;99.90;;;;;;4986971;28;25070;-63
2022/09/27 02:55:35;;;;;;;6.78;1.10;;;11.60;99.90;;;;;;4999121;28;25112;-63
2022/09/27 02:58:15;;;;;;;8.68;1.40;;;11.60;99.90;;;;;;5003783;28;25168;-63
2022/09/27 03:01:04;;;;;;;8.50;1.50;;;11.60;99.90;;;;;;5004898;28;25111;-62
2022/09/27 03:03:51;;;;;;;6.10;1.30;;;11.40;99.90;;;;;;5000888;28;25043;-63
2022/09/27 03:06:19;;;;;;;12.07;1.30;;;11.40;99.90;;;;;;4998606;28;25058;-62
2022/09/27 03:08:45;;;;;;;5.25;0.90;;;11.50;99.90;;;;;;5004206;28;25052;-65
2022/09/27 03:11:10;;;;;;;6.25;2.45;;;11.70;99.90;;;;;;5000295;28;25155;-65
2022/09/27 03:13:37;;;;;;;9.20;1.38;;;11.80;99.90;;;;;;5003892;28;25060;-63
2022/09/27 03:16:04;;;;;;;7.50;1.05;;;11.90;99.90;;;;;;4998893;28;25089;-64
2022/09/27 03:18:30;;;;;;;8.05;1.55;;;12.00;99.90;;;;;;5002888;28;25164;-66
2022/09/27 03:20:56;;;;;;;8.15;1.75;;;12.00;99.90;;;;;;4984129;28;25171;-65
2022/09/27 03:23:22;;;;;;;8.50;1.17;;;12.20;99.90;;;;;;5005126;28;25110;-65
2022/09/27 03:25:47;;;;;;;1.80;0.70;;;12.30;99.90;;;;;;5007443;28;25151;-65
2022/09/27 03:28:13;;;;;;;3.22;1.63;;;12.30;99.90;;;;;;5002360;28;25051;-64
2022/09/27 03:30:38;;;;;;;3.90;0.60;;;12.10;99.90;;;;;;5002853;28;25078;-63
2022/09/27 03:33:04;;;;;;;4.20;0.90;;;12.10;99.90;;;;;;5006408;28;25082;-63
2022/09/27 03:35:30;;;;;;;3.40;0.60;;;12.00;99.90;;;;;;5000524;28;25070;-62
2022/09/27 03:37:55;;;;;;;6.07;1.00;;;12.20;99.90;;;;;;4985507;28;25067;-65
2022/09/27 03:40:21;;;;;;;5.70;0.90;;;12.20;99.90;;;;;;5004891;28;25102;-65
2022/09/27 03:42:48;;;;;;;10.82;1.40;;;12.10;99.90;;;;;;5003769;28;25097;-64
2022/09/27 03:45:14;;;;;;;5.45;1.00;;;12.10;99.90;;;;;;5005649;28;25142;-63
2022/09/27 03:47:40;;;;;;;4.20;0.90;;;12.10;99.90;;;;;;5001413;28;25068;-64
2022/09/27 03:50:07;;;;;;;2.90;0.90;;;12.10;99.90;;;;;;5005330;28;25110;-63
2022/09/27 03:52:33;;;;;;;3.67;0.93;;;12.10;99.90;;;;;;4989337;28;25139;-63
2022/09/27 03:54:58;;;;;;;1.42;0.70;;;12.20;99.90;;;;;;5003901;28;25090;-64
2022/09/27 03:57:24;;;;;;;2.67;0.60;;;12.20;99.90;;;;;;5004140;28;25080;-66
2022/09/27 03:59:50;;;;;;;2.92;0.65;;;12.10;99.90;;;;;;5009881;28;25071;-64
2022/09/27 04:02:15;;;;;;;4.25;0.88;;;12.10;99.90;;;;;;5008294;28;25074;-64
2022/09/27 04:04:41;;;;;;;8.40;0.73;;;12.10;99.90;;;;;;5003315;28;25110;-64
2022/09/27 04:07:08;;;;;;;1.40;0.65;;;12.00;99.90;;;;;;4972791;28;25137;-64
2022/09/27 04:09:35;;;;;;;4.93;0.75;;;12.00;99.90;;;;;;4990977;28;25069;-62
2022/09/27 04:12:01;;;;;;;3.90;0.70;;;12.10;99.90;;;;;;5006987;28;25142;-63
2022/09/27 04:14:26;;;;;;;5.60;0.60;;;12.10;99.90;;;;;;5009108;28;25072;-63
2022/09/27 04:16:52;;;;;;;4.97;0.60;;;12.20;99.90;;;;;;5003422;28;25061;-63
2022/09/27 04:19:17;;;;;;;1.75;0.52;;;12.20;99.90;;;;;;5009078;28;25081;-64
2022/09/27 04:21:43;;;;;;;4.68;0.60;;;12.30;99.90;;;;;;5007290;28;25167;-63
2022/09/27 04:24:10;;;;;;;4.60;1.00;;;12.30;99.90;;;;;;5012530;28;25056;-63
2022/09/27 04:26:36;;;;;;;3.20;0.70;;;12.30;99.90;;;;;;5011259;28;25067;-63
2022/09/27 04:29:02;;;;;;;2.97;0.63;;;12.40;99.90;;;;;;5019784;28;25078;-64
2022/09/27 04:31:28;;;;;;;1.92;0.88;;;12.40;99.90;;;;;;5014151;28;25058;-64
2022/09/27 04:33:54;;;;;;;1.70;0.90;;;12.50;99.90;;;;;;5005969;28;25110;-63
2022/09/27 04:36:27;;;;;;;2.33;0.50;;;12.50;99.90;;;;;;5008781;28;25057;-66
2022/09/27 04:39:04;;;;;;;3.97;0.50;;;12.50;99.90;;;;;;5006129;28;25070;-65
2022/09/27 04:41:30;;;;;;;2.15;0.52;;;12.50;99.90;;;;;;5007415;28;25063;-65
2022/09/27 04:43:56;;;;;;;1.52;0.60;;;12.60;99.90;;;;;;5006487;28;25063;-65
2022/09/27 04:46:23;;;;;;;6.65;0.93;;;12.60;99.90;;;;;;5004139;28;25121;-64
2022/09/27 04:48:49;;;;;;;2.28;1.08;;;12.70;99.90;;;;;;5002691;28;25132;-65
2022/09/27 04:51:16;;;;;;;1.92;0.50;;;12.80;99.90;;;;;;5008124;28;25145;-64
2022/09/27 04:53:43;;;;;;;1.52;0.75;;;12.80;99.90;;;;;;5017060;28;25089;-62
2022/09/27 04:56:09;;;;;;;4.97;0.73;;;12.80;99.90;;;;;;5006169;28;25063;-65
2022/09/27 04:58:35;;;;;;;2.40;0.80;;;12.70;99.90;;;;;;5014718;28;25137;-66
2022/09/27 05:01:02;;;;;;;1.55;0.73;;;12.70;99.90;;;;;;5009918;28;25066;-64
2022/09/27 05:03:29;;;;;;;2.75;0.95;;;12.60;99.90;;;;;;5001213;28;25070;-64
2022/09/27 05:05:54;;;;;;;2.58;0.85;;;12.50;99.90;;;;;;5010657;28;25145;-65
2022/09/27 05:08:20;;;;;;;4.30;1.13;;;12.60;99.90;;;;;;5010270;28;25086;-63
2022/09/27 05:10:47;;;;;;;2.08;0.65;;;12.60;99.90;;;;;;5010536;28;25006;-66
2022/09/27 05:13:13;;;;;;;5.78;1.08;;;12.60;99.90;;;;;;5012925;28;25056;-66
2022/09/27 05:15:39;;;;;;;2.13;0.60;;;12.60;99.90;;;;;;5004666;28;25077;-63
2022/09/27 05:18:07;;;;;;;3.03;0.98;;;12.50;99.90;;;;;;5011010;28;25076;-64
2022/09/27 05:20:33;;;;;;;2.97;1.05;;;12.60;99.90;;;;;;5005903;28;25094;-61
2022/09/27 05:22:59;;;;;;;7.32;1.17;;;12.60;99.90;;;;;;4985664;28;25078;-64
2022/09/27 05:25:25;;;;;;;6.38;1.08;;;12.50;99.90;;;;;;5007167;28;25070;-64
2022/09/27 05:27:51;;;;;;;5.47;1.10;;;12.50;99.90;;;;;;4989575;28;25049;-64
2022/09/27 05:30:17;;;;;;;9.27;1.17;;;12.50;99.90;;;;;;5011750;28;25077;-64
2022/09/27 05:32:45;;;;;;;4.78;1.20;;;12.50;99.90;;;;;;5006867;28;25131;-64
2022/09/27 05:35:10;;;;;;;8.32;1.17;;;12.40;99.90;;;;;;5016540;28;25081;-64
2022/09/27 05:37:37;;;;;;;7.03;1.08;;;12.60;99.90;;;;;;5011937;28;25068;-64
2022/09/27 05:40:03;;;;;;;3.08;1.08;;;12.60;99.90;;;;;;5009357;28;25110;-64
2022/09/27 05:42:29;;;;;;;4.30;1.13;;;12.60;99.90;;;;;;4993057;28;25113;-66
2022/09/27 05:44:54;;;;;;;6.70;1.25;;;12.60;99.90;;;;;;5015481;28;25051;-64
2022/09/27 05:47:19;;;;;;;3.47;0.90;;;12.60;99.90;;;;;;5017682;28;25143;-63
2022/09/27 05:49:45;;;;;;;3.88;1.05;;;12.60;99.90;;;;;;5019304;28;25063;-64
2022/09/27 05:52:10;;;;;;;4.50;1.10;;;12.60;99.90;;;;;;5006977;28;25080;-64
2022/09/27 05:54:36;;;;;;;1.58;0.70;;;12.70;99.90;;;;;;5021767;28;25070;-64
2022/09/27 05:57:02;;;;;;;6.53;1.05;;;12.70;99.90;;;;;;5013703;28;25090;-61
2022/09/27 05:59:28;;;;;;;2.60;0.90;;;12.60;99.90;;;;;;5009732;28;25148;-63
2022/09/27 06:01:53;;;;;;;4.95;0.80;;;12.70;99.90;;;;;;5005608;28;25114;-63
2022/09/27 06:04:20;;;;;;;1.77;1.02;;;12.80;99.90;;;;;;5016535;28;25163;-64
2022/09/27 06:06:46;;;;;;;3.33;0.75;;;12.80;99.90;;;;;;5005243;28;25080;-64
2022/09/27 06:09:13;;;;;;;6.43;0.90;;;12.80;99.90;;;;;;5006369;28;25065;-63
2022/09/27 06:11:39;;;;;;;5.25;0.90;;;12.80;99.90;;;;;;5002610;28;25117;-63
2022/09/27 06:14:04;;;;;;;6.45;1.02;;;12.90;99.90;;;;;;5006909;28;25142;-63
2022/09/27 06:16:30;;;;;;;6.13;0.73;;;13.10;99.90;;;;;;5014455;28;25115;-63
2022/09/27 06:18:56;;;;;;;2.97;1.10;;;13.20;99.90;;;;;;5005481;28;25106;-63
2022/09/27 06:21:23;;;;;;;1.67;0.95;;;13.20;99.90;;;;;;5008483;28;25129;-63
2022/09/27 06:23:48;;;;;;;3.53;0.73;;;13.10;99.90;;;;;;5004242;28;25180;-63
2022/09/27 06:26:15;;;;;;;3.97;0.90;;;13.00;99.90;;;;;;5011621;28;25058;-63
2022/09/27 06:28:41;;;;;;;10.73;1.48;;;13.00;99.90;;;;;;5016488;28;25069;-63
2022/09/27 06:31:07;;;;;;;3.75;0.80;;;13.10;99.90;;;;;;5004348;28;25130;-64
2022/09/27 06:33:33;;;;;;;4.38;0.80;;;13.20;99.90;;;;;;5001158;28;25077;-64
2022/09/27 06:36:04;;;;;;;1.35;0.70;;;13.20;99.90;;;;;;5005052;28;25135;-64
2022/09/27 06:38:30;;;;;;;5.20;0.98;;;13.10;99.90;;;;;;5005900;28;25113;-63
2022/09/27 06:41:00;;;;;;;3.97;0.80;;;13.00;99.90;;;;;;4996066;28;25060;-62
2022/09/27 06:43:26;;;;;;;4.10;1.05;;;12.90;99.90;;;;;;5007416;28;25578;-64
2022/09/27 06:45:52;;;;;;;6.10;0.98;;;13.00;99.90;;;;;;4996518;28;25096;-63
2022/09/27 06:48:18;;;;;;;8.77;0.70;;;13.10;99.90;;;;;;5012298;28;25090;-65
2022/09/27 06:50:45;;;;;;;3.47;0.77;;;13.00;99.90;;;;;;5001718;28;25063;-64
2022/09/27 06:53:13;;;;;;;2.30;0.85;;;12.90;99.90;;;;;;5002102;28;25139;-63
2022/09/27 06:55:39;;;;;;;3.75;1.05;;;12.80;99.90;;;;;;4985277;28;25062;-63
2022/09/27 07:00:52;;;;;;;5.95;0.70;;;12.90;99.90;;;;;;4999720;28;25080;-64
2022/09/27 07:03:18;;;;;;;3.28;0.55;;;13.00;99.90;;;;;;5005725;28;25050;-64
2022/09/27 07:05:54;;;;;;;3.85;1.23;;;13.00;99.90;;;;;;5004419;28;25148;-64
2022/09/27 07:08:20;;;;;;;6.72;1.13;;;12.90;99.90;;;;;;4995934;28;25080;-63
2022/09/27 07:10:46;;;;;;;4.40;0.90;;;13.00;99.90;;;;;;4992965;28;25052;-63
2022/09/27 07:13:11;;;;;;;5.28;1.17;;;13.00;99.90;;;;;;5009506;28;25125;-64
2022/09/27 07:15:39;;;;;;;4.22;1.25;;;13.20;99.90;;;;;;5005954;28;25070;-64
2022/09/27 07:18:06;;;;;;;5.25;1.08;;;13.10;99.90;;;;;;5004622;28;25071;-64
2022/09/27 07:20:36;;;;;;;5.20;0.85;;;13.20;99.90;;;;;;5007720;28;25079;-64
2022/09/27 07:23:01;;;;;;;2.08;0.93;;;13.20;99.90;;;;;;5007014;28;25061;-65
2022/09/27 07:25:27;;;;;;;5.43;0.85;;;13.20;99.90;;;;;;5007530;28;25062;-64
2022/09/27 07:27:53;;;;;;;4.22;0.95;;;13.10;99.90;;;;;;5002932;28;25161;-63
2022/09/27 07:30:20;;;;;;;6.72;1.20;;;13.20;99.90;;;;;;4996545;28;25072;-64
2022/09/27 07:32:46;;;;;;;4.20;1.10;;;13.20;99.90;;;;;;4998982;28;25098;-64
2022/09/27 07:35:14;;;;;;;5.78;0.75;;;13.30;99.90;;;;;;5001158;28;25084;-64
2022/09/27 07:37:40;;;;;;;3.45;1.10;;;13.40;99.90;;;;;;5000639;28;25144;-65
2022/09/27 07:40:08;;;;;;;2.40;1.20;;;13.40;99.90;;;;;;5000813;28;25070;-62
2022/09/27 07:42:37;;;;;;;4.35;1.10;;;13.40;99.90;;;;;;4986148;28;25053;-63
2022/09/27 07:45:05;;;;;;;9.52;1.38;;;13.50;99.90;;;;;;5000808;28;25082;-60
2022/09/27 07:47:30;;;;;;;9.10;1.17;;;13.70;99.90;;;;;;5004275;28;25058;-61
2022/09/27 07:49:56;;;;;;;4.60;1.30;;;13.60;99.90;;;;;;5010008;28;25140;-63
2022/09/27 07:52:22;;;;;;;9.23;1.30;;;13.70;99.90;;;;;;5012203;28;25078;-63
2022/09/27 07:54:47;;;;;;;4.20;1.20;;;13.80;99.90;;;;;;5004342;28;25106;-65
2022/09/27 07:57:14;;;;;;;3.65;1.38;;;13.90;99.90;;;;;;5001900;28;25056;-63
2022/09/27 07:59:40;;;;;;;6.00;1.30;;;13.80;99.90;;;;;;5005997;28;25139;-62
2022/09/27 08:02:12;;;;;;;7.75;1.00;;;13.70;99.90;;;;;;5005043;28;25078;-61
2022/09/27 08:04:38;;;;;;;6.00;0.98;;;13.60;99.90;;;;;;5005403;28;25145;-61
2022/09/27 08:07:03;;;;;;;6.50;1.25;;;13.70;99.90;;;;;;5004772;28;25053;-61
2022/09/27 08:09:29;;;;;;;4.28;1.30;;;13.80;99.90;;;;;;4999011;28;25058;-62
2022/09/27 08:11:57;;;;;;;3.80;1.00;;;13.70;99.90;;;;;;5005490;28;25075;-62
2022/09/27 08:14:23;;;;;;;5.53;1.15;;;14.00;99.90;;;;;;5004346;28;25050;-61
2022/09/27 08:16:50;;;;;;;9.82;1.20;;;14.10;99.90;;;;;;4988212;28;25064;-60
2022/09/27 08:19:16;;;;;;;6.05;1.48;;;14.30;99.90;;;;;;5005279;28;25136;-62
2022/09/27 08:21:42;;;;;;;4.13;1.55;;;14.30;99.90;;;;;;5036037;23;25139;-61
2022/09/27 08:24:07;;;;;;;9.43;2.22;;;14.10;99.90;;;;;;5033869;28;25058;-61
2022/09/27 08:26:33;;;;;;;2.92;0.80;;;14.10;99.90;;;;;;5035533;28;25089;-61
2022/09/27 08:28:58;;;;;;;9.48;1.27;;;13.90;99.90;;;;;;5031311;28;25095;-61
2022/09/27 08:31:24;;;;;;;2.33;0.93;;;13.90;99.90;;;;;;5034616;28;25134;-61
2022/09/27 08:33:50;;;;;;;7.03;1.02;;;13.70;99.90;;;;;;5037187;28;25104;-62
2022/09/27 08:36:16;;;;;;;8.27;1.52;;;13.70;99.90;;;;;;5034740;28;25149;-61
2022/09/27 08:38:42;;;;;;;3.58;0.85;;;13.70;99.90;;;;;;5036266;28;25077;-61
2022/09/27 08:41:39;;;;;;;4.80;1.20;;;13.70;99.90;;;;;;5038790;28;25055;-61
2022/09/27 08:44:05;;;;;;;6.30;1.10;;;13.70;99.90;;;;;;5026193;28;25059;-62
2022/09/27 08:46:57;;;;;;;4.30;1.00;;;13.80;99.90;;;;;;5038109;28;25063;-62
2022/09/27 08:49:56;;;;;;;7.18;1.35;;;13.70;99.90;;;;;;5035225;28;25129;-61
2022/09/27 08:52:34;;;;;;;2.50;0.90;;;13.80;99.90;;;;;;4969214;28;25079;-61
2022/09/27 08:55:05;;;;;;;9.02;1.60;;;13.80;99.90;;;;;;5036043;28;25075;-62
2022/09/27 08:57:30;;;;;;;5.78;1.35;;;13.80;99.90;;;;;;5036983;28;25065;-61
2022/09/27 09:00:10;;;;;;;2.95;1.20;;;13.70;99.90;;;;;;5040223;28;25114;-61
2022/09/27 09:02:36;;;;;;;1.08;0.98;;;13.60;99.90;;;;;;5041229;28;25109;-62
2022/09/27 09:05:12;;;;;;;8.15;1.25;;;13.60;99.90;;;;;;5040374;28;25073;-62
2022/09/27 09:07:59;;;;;;;5.07;1.30;;;13.60;99.90;;;;;;5038234;28;25098;-62
2022/09/27 09:13:43;;;;;;;4.07;1.00;;;13.70;99.90;;;;;;5027991;28;25059;-63
2022/09/27 09:16:44;;;;;;;4.07;1.75;;;13.50;99.90;;;;;;5031479;28;25089;-62
2022/09/27 09:19:46;;;;;;;6.13;0.70;;;13.50;99.90;;;;;;4975526;28;25108;-63
2022/09/27 09:22:28;;;;;;;1.45;0.80;;;13.50;99.90;;;;;;5033223;28;25131;-63
2022/09/27 09:25:10;;;;;;;4.60;0.93;;;13.40;99.90;;;;;;5034631;28;25071;-63
2022/09/27 09:27:53;;;;;;;3.15;0.88;;;13.30;99.90;;;;;;5040531;28;25134;-63
2022/09/27 09:30:23;;;;;;;8.10;1.20;;;13.20;99.90;;;;;;5029596;28;25121;-62
2022/09/27 09:33:07;;;;;;;7.97;0.80;;;13.30;99.90;;;;;;5036883;28;25088;-62
2022/09/27 09:35:45;;;;;;;2.33;0.77;;;13.30;99.90;;;;;;5036641;28;25099;-63
2022/09/27 09:38:35;;;;;;;2.20;0.50;;;13.60;99.90;;;;;;5037132;28;25145;-63
2022/09/27 09:41:32;;;;;;;2.13;0.70;;;13.60;99.90;;;;;;5027178;28;25075;-62
2022/09/27 09:44:05;;;;;;;1.05;0.55;;;13.70;99.90;;;;;;5037694;28;25062;-63
2022/09/27 09:46:39;;;;;;;;;;;13.80;99.90;;;;;;5032929;28;25091;-63
2022/09/27 09:49:24;;;;;;;1.98;0.68;;;13.80;99.90;;;;;;5032553;28;24105;-63
2022/09/27 09:51:55;;;;;;;2.58;0.75;;;13.70;99.90;;;;;;5031564;28;25074;-63
2022/09/27 09:54:32;;;;;;;1.42;0.52;;;13.70;99.90;;;;;;5041470;28;25065;-63
2022/09/27 09:57:07;;;;;;;0.82;0.52;;;13.70;99.90;;;;;;5024278;28;25145;-62
2022/09/27 09:59:42;;;;;;;1.65;0.70;;;13.70;99.90;;;;;;5038107;28;25082;-62
2022/09/27 10:02:23;;;;;;;3.63;0.70;;;13.60;99.90;;;;;;5044680;28;25064;-62
2022/09/27 10:04:49;;;;;;;1.48;0.47;;;13.50;99.90;;;;;;5038259;28;25042;-63
2022/09/27 10:07:20;;;;;;;2.92;0.50;;;13.20;99.90;;;;;;5040744;28;25129;-62
2022/09/27 10:09:45;;;;;;;2.25;0.88;;;13.00;99.90;;;;;;5045561;28;25089;-61
2022/09/27 10:12:11;;;;;;;2.65;0.47;;;13.00;99.90;;;;;;5033990;28;25119;-62
2022/09/27 10:14:37;;;;;;;1.50;0.45;;;13.00;99.90;;;;;;5042006;28;25085;-62
2022/09/27 10:17:09;;;;;;;1.77;0.50;;;12.90;99.90;;;;;;5035697;28;25099;-62
2022/09/27 10:19:38;;;;;;;2.05;0.50;;;13.10;99.90;;;;;;5040270;28;25071;-62
2022/09/27 10:22:15;;;;;;;0.85;0.40;;;13.10;99.90;;;;;;5036385;28;25106;-62
2022/09/27 10:24:57;;;;;;;1.25;0.63;;;13.00;99.90;;;;;;5018304;28;25084;-62
2022/09/27 10:27:26;;;;;;;2.45;0.65;;;13.00;99.90;;;;;;5032942;28;25120;-62
2022/09/27 10:29:58;;;;;;;1.83;0.60;;;13.00;99.90;;;;;;5031886;28;25111;-62
2022/09/27 10:32:26;;;;;;;;;;;13.10;99.90;;;;;;5038898;28;25057;-63
2022/09/27 10:34:52;;;;;;;2.22;0.50;;;13.10;99.90;;;;;;5034548;28;24110;-62
2022/09/27 10:37:21;;;;;;;2.58;0.90;;;13.10;99.90;;;;;;5036599;28;25157;-63
2022/09/27 10:39:50;;;;;;;1.25;0.68;;;13.30;99.90;;;;;;5028272;28;25078;-61
2022/09/27 10:42:20;;;;;;;1.95;0.70;;;13.40;99.90;;;;;;5024901;28;25077;-63
2022/09/27 10:44:46;;;;;;;0.82;0.50;;;13.40;99.90;;;;;;5032864;28;25070;-62
2022/09/27 10:47:21;;;;;;;2.83;0.80;;;13.40;99.90;;;;;;5029843;28;25157;-64
2022/09/27 10:49:51;;;;;;;1.73;0.98;;;13.40;99.90;;;;;;5037284;28;25060;-62
2022/09/27 10:52:22;;;;;;;5.28;0.95;;;13.40;99.90;;;;;;5029627;28;25119;-62
2022/09/27 10:54:54;;;;;;;2.03;0.90;;;13.70;99.90;;;;;;5037685;28;25076;-63
2022/09/27 10:57:26;;;;;;;7.95;1.20;;;13.80;99.90;;;;;;5026662;28;25066;-60
2022/09/27 11:00:31;;;;;;;5.07;0.70;;;13.70;99.90;;;;;;5033766;28;25061;-63
2022/09/27 11:03:00;;;;;;;4.32;1.05;;;13.40;99.90;;;;;;5023488;28;25073;-61
2022/09/27 11:05:26;;;;;;;2.22;0.80;;;13.60;99.90;;;;;;5025647;28;25117;-62
2022/09/27 11:08:01;;;;;;;3.95;0.70;;;13.90;99.90;;;;;;5036609;28;25072;-64
2022/09/27 11:10:33;;;;;;;3.25;0.90;;;13.90;99.90;;;;;;5035269;28;25073;-63
2022/09/27 11:13:07;;;;;;;6.80;0.90;;;13.90;99.90;;;;;;5028523;28;25109;-63
2022/09/27 11:15:45;;;;;;;6.97;1.10;;;14.10;99.90;;;;;;5032111;28;25094;-62
2022/09/27 11:18:36;;;;;;;2.28;0.70;;;14.20;99.90;;;;;;5029852;28;25063;-63
2022/09/27 11:21:24;;;;;;;1.38;0.63;;;14.00;99.90;;;;;;5017797;28;25059;-63
2022/09/27 11:23:55;;;;;;;4.35;0.98;;;14.10;99.90;;;;;;5034860;28;25145;-62
2022/09/27 11:26:43;;;;;;;4.15;1.10;;;14.30;99.90;;;;;;5034225;28;25103;-62
2022/09/27 11:29:30;;;;;;;2.65;1.50;;;14.50;99.90;;;;;;5036237;28;25054;-64
2022/09/27 11:32:15;;;;;;;3.28;1.42;;;14.60;99.90;;;;;;5022315;28;25045;-63
2022/09/27 11:35:18;;;;;;;5.47;1.75;;;14.60;99.90;;;;;;5035109;28;25100;-63
2022/09/27 11:38:02;;;;;;;6.20;1.40;;;14.60;99.90;;;;;;5038189;28;25062;-64
2022/09/27 11:40:52;;;;;;;3.95;1.30;;;14.90;99.90;;;;;;5029764;28;25128;-64
2022/09/27 11:43:35;;;;;;;4.18;1.23;;;15.30;99.90;;;;;;5029671;28;25137;-63
2022/09/27 11:46:29;;;;;;;3.03;1.65;;;15.20;99.90;;;;;;5026326;28;25053;-63
2022/09/27 11:49:03;;;;;;;3.88;0.95;;;15.40;99.90;;;;;;5034825;28;25053;-63
2022/09/27 11:51:49;;;;;;;4.57;0.98;;;15.50;99.90;;;;;;5027260;28;25057;-64
2022/09/27 11:54:33;;;;;;;3.08;1.00;;;15.40;99.90;;;;;;5039890;28;25063;-62
2022/09/27 11:57:22;;;;;;;4.63;1.08;;;15.40;99.90;;;;;;5029645;28;25126;-63
2022/09/27 12:00:09;;;;;;;2.00;0.70;;;15.40;99.90;;;;;;5038347;28;25147;-63
2022/09/27 12:02:43;;;;;;;2.50;0.57;;;15.60;99.90;;;;;;5030904;28;25118;-64
2022/09/27 12:05:23;;;;;;;5.10;0.75;;;15.50;99.90;;;;;;5036876;28;25085;-63
2022/09/27 12:08:09;;;;;;;4.78;0.65;;;15.60;99.90;;;;;;5038472;28;25067;-63
2022/09/27 12:10:40;;;;;;;1.50;0.80;;;15.50;99.90;;;;;;5032752;28;25055;-62
2022/09/27 12:13:11;;;;;;;1.15;0.50;;;15.40;99.90;;;;;;5038348;28;25135;-64
2022/09/27 12:15:41;;;;;;;3.28;0.60;;;15.50;99.90;;;;;;5037564;28;25159;-63
2022/09/27 12:18:30;;;;;;;1.48;0.77;;;15.50;99.90;;;;;;5036718;28;25165;-64
2022/09/27 12:21:01;;;;;;;1.35;0.40;;;15.40;99.90;;;;;;5030595;28;25112;-63
2022/09/27 12:23:37;;;;;;;0.85;0.50;;;15.00;99.90;;;;;;5039085;28;25073;-63
2022/09/27 12:26:09;;;;;;;2.60;0.50;;;14.90;99.90;;;;;;5034136;28;25079;-63
2022/09/27 12:28:54;;;;;;;1.35;0.40;;;15.10;99.90;;;;;;5039977;28;25059;-64
2022/09/27 12:31:25;;;;;;;1.83;0.65;;;15.10;99.90;;;;;;5017911;28;25141;-63
2022/09/27 12:34:01;;;;;;;0.95;0.52;;;15.00;99.90;;;;;;5036045;28;25063;-63
2022/09/27 12:36:34;;;;;;;4.88;0.90;;;14.90;99.90;;;;;;5039055;28;25121;-63
2022/09/27 12:39:30;;;;;;;1.80;1.17;;;15.00;99.90;;;;;;5037414;28;25074;-63
2022/09/27 12:42:04;;;;;;;2.35;0.80;;;15.30;99.90;;;;;;5038068;28;25059;-63
2022/09/27 12:44:38;;;;;;;7.00;0.85;;;15.30;99.90;;;;;;5025516;28;25065;-63
2022/09/27 12:47:35;;;;;;;0.88;0.50;;;15.40;99.90;;;;;;5033384;28;25080;-63
2022/09/27 12:50:18;;;;;;;1.23;0.60;;;15.60;99.90;;;;;;5038368;28;25055;-63
2022/09/27 12:52:49;;;;;;;1.30;0.63;;;15.10;99.90;;;;;;5039157;28;25100;-63
2022/09/27 12:55:37;;;;;;;4.22;0.70;;;15.40;99.90;;;;;;5033220;28;25089;-62
2022/09/27 12:58:09;;;;;;;2.17;0.60;;;15.30;99.90;;;;;;5038086;28;25119;-63
2022/09/27 13:01:05;;;;;;;0.93;0.67;;;15.40;99.90;;;;;;5037961;28;25052;-63
2022/09/27 13:04:21;;;;;;;2.53;0.50;;;15.70;99.90;;;;;;5039159;28;25077;-62
2022/09/27 13:07:12;;;;;;;3.05;0.70;;;15.20;99.90;;;;;;5011668;28;25118;-62
2022/09/27 13:09:47;;;;;;;3.67;1.00;;;13.90;99.90;;;;;;5016296;28;25060;-61
2022/09/27 13:12:32;;;;;;;3.60;0.82;;;13.80;99.90;;;;;;5038680;28;25103;-62
2022/09/27 13:15:06;;;;;;;1.25;0.60;;;13.80;99.90;;;;;;5033188;28;25147;-62
2022/09/27 13:17:39;;;;;;;1.67;0.63;;;13.40;99.90;;;;;;5029675;28;25201;-62
2022/09/27 13:20:43;;;;;;;3.58;0.73;;;13.00;99.90;;;;;;5037719;28;25130;-62